Aviation Digital Data Service (ADDS)

Output produced by METARs form (1849 UTC 18 June 2019)
found at http://www.aviationweather.gov/metar/data/
 
METAR text: VOHY 181600Z 22006KT 6000 SCT020 BKN100 35/19 Q1008 NOSIG
Conditions at: VOHY (HYDERABAD (CIV/M, IN) observed 1600 UTC 18 June 2019
Temperature: 35.0°C (95°F)
Dewpoint: 19.0°C (66°F) [RH = 39%]
Pressure (altimeter): 29.76 inches Hg (1008.0 mb)
Winds: from the SW (220 degrees) at 7 MPH (6 knots; 3.1 m/s)
Visibility: 4 miles ( 6 km)
Ceiling: 10000 feet AGL
Clouds: scattered clouds at 2000 feet AGL
broken clouds at 10000 feet AGL
Weather: no significant weather observed at this time

METAR text: VOHY 181530Z 24007KT 6000 SCT020 BKN100 35/19 Q1007 NOSIG
Conditions at: VOHY (HYDERABAD (CIV/M, IN) observed 1530 UTC 18 June 2019
Temperature: 35.0°C (95°F)
Dewpoint: 19.0°C (66°F) [RH = 39%]
Pressure (altimeter): 29.73 inches Hg (1007.0 mb)
Winds: from the WSW (240 degrees) at 8 MPH (7 knots; 3.6 m/s)
Visibility: 4 miles ( 6 km)
Ceiling: 10000 feet AGL
Clouds: scattered clouds at 2000 feet AGL
broken clouds at 10000 feet AGL
Weather: no significant weather observed at this time

METAR text: VOHY 181500Z 220006KT 6000 SCT020 BKN100 35/19 Q1007 NOSIG
Conditions at: VOHY (HYDERABAD (CIV/M, IN) observed 1500 UTC 18 June 2019
Temperature: 35.0°C (95°F)
Dewpoint: 19.0°C (66°F) [RH = 39%]
Pressure (altimeter): 29.73 inches Hg (1007.0 mb)
Winds: from the SW (220 degrees) at 7 MPH (6 knots; 3.1 m/s)
Visibility: 4 miles ( 6 km)
Ceiling: 10000 feet AGL
Clouds: scattered clouds at 2000 feet AGL
broken clouds at 10000 feet AGL
Weather: no significant weather observed at this time

METAR text: VOHY 181430Z 21004KT 6000 SCT020 BKN100 36/19 Q1007 NOSIG
Conditions at: VOHY (HYDERABAD (CIV/M, IN) observed 1430 UTC 18 June 2019
Temperature: 36.0°C (97°F)
Dewpoint: 19.0°C (66°F) [RH = 37%]
Pressure (altimeter): 29.73 inches Hg (1007.0 mb)
Winds: from the SSW (210 degrees) at 5 MPH (4 knots; 2.1 m/s)
Visibility: 4 miles ( 6 km)
Ceiling: 10000 feet AGL
Clouds: scattered clouds at 2000 feet AGL
broken clouds at 10000 feet AGL
Weather: no significant weather observed at this time

METAR text: VOHY 181400Z 24007LKT 6000 SCT020 SCT100 36/19 Q1007 NOSIG
Conditions at: VOHY (HYDERABAD (CIV/M, IN) observed 1400 UTC 18 June 2019
Temperature: 36.0°C (97°F)
Dewpoint: 19.0°C (66°F) [RH = 37%]
Pressure (altimeter): 29.73 inches Hg (1007.0 mb)
Winds: missing
Visibility: 4 miles ( 6 km)
Ceiling: at least 12,000 feet AGL
Clouds: scattered clouds at 2000 feet AGL
scattered clouds at 10000 feet AGL
Weather: no significant weather observed at this time

METAR text: VOHY 181330Z 23005KT 6000 SCT020 SCT100 36/19 Q1006 NOSIG
Conditions at: VOHY (HYDERABAD (CIV/M, IN) observed 1330 UTC 18 June 2019
Temperature: 36.0°C (97°F)
Dewpoint: 19.0°C (66°F) [RH = 37%]
Pressure (altimeter): 29.70 inches Hg (1006.0 mb)
Winds: from the SW (230 degrees) at 6 MPH (5 knots; 2.6 m/s)
Visibility: 4 miles ( 6 km)
Ceiling: at least 12,000 feet AGL
Clouds: scattered clouds at 2000 feet AGL
scattered clouds at 10000 feet AGL
Weather: no significant weather observed at this time

METAR text: VOHY 181300Z 24007KT 6000 SCT020 SCT100 36/18 Q1006 NOSIG
Conditions at: VOHY (HYDERABAD (CIV/M, IN) observed 1300 UTC 18 June 2019
Temperature: 36.0°C (97°F)
Dewpoint: 18.0°C (64°F) [RH = 35%]
Pressure (altimeter): 29.70 inches Hg (1006.0 mb)
Winds: from the WSW (240 degrees) at 8 MPH (7 knots; 3.6 m/s)
Visibility: 4 miles ( 6 km)
Ceiling: at least 12,000 feet AGL
Clouds: scattered clouds at 2000 feet AGL
scattered clouds at 10000 feet AGL
Weather: no significant weather observed at this time

METAR text: VOHY 181230Z 23006KT 6000 SCT020 SCT100 36/18 Q1006 NOSIG
Conditions at: VOHY (HYDERABAD (CIV/M, IN) observed 1230 UTC 18 June 2019
Temperature: 36.0°C (97°F)
Dewpoint: 18.0°C (64°F) [RH = 35%]
Pressure (altimeter): 29.70 inches Hg (1006.0 mb)
Winds: from the SW (230 degrees) at 7 MPH (6 knots; 3.1 m/s)
Visibility: 4 miles ( 6 km)
Ceiling: at least 12,000 feet AGL
Clouds: scattered clouds at 2000 feet AGL
scattered clouds at 10000 feet AGL
Weather: no significant weather observed at this time

METAR text: VOHY 181200Z 22008KT 6000 SCT020 SCT100 37/19 Q1006 NOSIG
Conditions at: VOHY (HYDERABAD (CIV/M, IN) observed 1200 UTC 18 June 2019
Temperature: 37.0°C (99°F)
Dewpoint: 19.0°C (66°F) [RH = 35%]
Pressure (altimeter): 29.70 inches Hg (1006.0 mb)
Winds: from the SW (220 degrees) at 9 MPH (8 knots; 4.1 m/s)
Visibility: 4 miles ( 6 km)
Ceiling: at least 12,000 feet AGL
Clouds: scattered clouds at 2000 feet AGL
scattered clouds at 10000 feet AGL
Weather: no significant weather observed at this time

METAR text: VOHY 181130Z 25010KT 6000 FEW020 SCT025 37/19 Q1006 NOSIG
Conditions at: VOHY (HYDERABAD (CIV/M, IN) observed 1130 UTC 18 June 2019
Temperature: 37.0°C (99°F)
Dewpoint: 19.0°C (66°F) [RH = 35%]
Pressure (altimeter): 29.70 inches Hg (1006.0 mb)
Winds: from the WSW (250 degrees) at 12 MPH (10 knots; 5.1 m/s)
Visibility: 4 miles ( 6 km)
Ceiling: at least 12,000 feet AGL
Clouds: few clouds at 2000 feet AGL
scattered clouds at 2500 feet AGL
Weather: no significant weather observed at this time

METAR text: VOHY 181100Z 23007KT 6000 FEW020 SCT025 37/19 Q1006 NOSIG
Conditions at: VOHY (HYDERABAD (CIV/M, IN) observed 1100 UTC 18 June 2019
Temperature: 37.0°C (99°F)
Dewpoint: 19.0°C (66°F) [RH = 35%]
Pressure (altimeter): 29.70 inches Hg (1006.0 mb)
Winds: from the SW (230 degrees) at 8 MPH (7 knots; 3.6 m/s)
Visibility: 4 miles ( 6 km)
Ceiling: at least 12,000 feet AGL
Clouds: few clouds at 2000 feet AGL
scattered clouds at 2500 feet AGL
Weather: no significant weather observed at this time

METAR text: VOHY 181030Z 25005KT 6000 FEW020 SCT025 37/18 Q1006 NOSIG
Conditions at: VOHY (HYDERABAD (CIV/M, IN) observed 1030 UTC 18 June 2019
Temperature: 37.0°C (99°F)
Dewpoint: 18.0°C (64°F) [RH = 33%]
Pressure (altimeter): 29.70 inches Hg (1006.0 mb)
Winds: from the WSW (250 degrees) at 6 MPH (5 knots; 2.6 m/s)
Visibility: 4 miles ( 6 km)
Ceiling: at least 12,000 feet AGL
Clouds: few clouds at 2000 feet AGL
scattered clouds at 2500 feet AGL
Weather: no significant weather observed at this time

METAR text: VOHY 181000Z 26005KT 6000 FEW020 SCT025 37/19 Q1006 NOSIG
Conditions at: VOHY (HYDERABAD (CIV/M, IN) observed 1000 UTC 18 June 2019
Temperature: 37.0°C (99°F)
Dewpoint: 19.0°C (66°F) [RH = 35%]
Pressure (altimeter): 29.70 inches Hg (1006.0 mb)
Winds: from the W (260 degrees) at 6 MPH (5 knots; 2.6 m/s)
Visibility: 4 miles ( 6 km)
Ceiling: at least 12,000 feet AGL
Clouds: few clouds at 2000 feet AGL
scattered clouds at 2500 feet AGL
Weather: no significant weather observed at this time

METAR text: VOHY 180930Z 26011KT 6000 FEW020 SCT025 37/19 Q1006 NOSIG
Conditions at: VOHY (HYDERABAD (CIV/M, IN) observed 0930 UTC 18 June 2019
Temperature: 37.0°C (99°F)
Dewpoint: 19.0°C (66°F) [RH = 35%]
Pressure (altimeter): 29.70 inches Hg (1006.0 mb)
Winds: from the W (260 degrees) at 13 MPH (11 knots; 5.7 m/s)
Visibility: 4 miles ( 6 km)
Ceiling: at least 12,000 feet AGL
Clouds: few clouds at 2000 feet AGL
scattered clouds at 2500 feet AGL
Weather: no significant weather observed at this time

METAR text: VOHY 180900Z 28012KT 6000 FEW020 SCT025 37/19 Q1007 NOSIG
Conditions at: VOHY (HYDERABAD (CIV/M, IN) observed 0900 UTC 18 June 2019
Temperature: 37.0°C (99°F)
Dewpoint: 19.0°C (66°F) [RH = 35%]
Pressure (altimeter): 29.73 inches Hg (1007.0 mb)
Winds: from the W (280 degrees) at 14 MPH (12 knots; 6.2 m/s)
Visibility: 4 miles ( 6 km)
Ceiling: at least 12,000 feet AGL
Clouds: few clouds at 2000 feet AGL
scattered clouds at 2500 feet AGL
Weather: no significant weather observed at this time

METAR text: VOHY 180830Z 25011KT 6000 FEW020 SCT025 37/19 Q1007 NOSIG
Conditions at: VOHY (HYDERABAD (CIV/M, IN) observed 0830 UTC 18 June 2019
Temperature: 37.0°C (99°F)
Dewpoint: 19.0°C (66°F) [RH = 35%]
Pressure (altimeter): 29.73 inches Hg (1007.0 mb)
Winds: from the WSW (250 degrees) at 13 MPH (11 knots; 5.7 m/s)
Visibility: 4 miles ( 6 km)
Ceiling: at least 12,000 feet AGL
Clouds: few clouds at 2000 feet AGL
scattered clouds at 2500 feet AGL
Weather: no significant weather observed at this time

METAR text: VOHY 180800Z 25011KT 6000 FEW020 SCT025 37/20 Q1008 NOSIG
Conditions at: VOHY (HYDERABAD (CIV/M, IN) observed 0800 UTC 18 June 2019
Temperature: 37.0°C (99°F)
Dewpoint: 20.0°C (68°F) [RH = 37%]
Pressure (altimeter): 29.76 inches Hg (1008.0 mb)
Winds: from the WSW (250 degrees) at 13 MPH (11 knots; 5.7 m/s)
Visibility: 4 miles ( 6 km)
Ceiling: at least 12,000 feet AGL
Clouds: few clouds at 2000 feet AGL
scattered clouds at 2500 feet AGL
Weather: no significant weather observed at this time

METAR text: VOHY 180730Z 25008G14KT 6000 FEW020 SCT025 36/20 Q1008 NOSIG
Conditions at: VOHY (HYDERABAD (CIV/M, IN) observed 0730 UTC 18 June 2019
Temperature: 36.0°C (97°F)
Dewpoint: 20.0°C (68°F) [RH = 39%]
Pressure (altimeter): 29.76 inches Hg (1008.0 mb)
Winds: from the WSW (250 degrees) at 9 MPH (8 knots; 4.1 m/s)
gusting to 16 MPH (14 knots; 7.2 m/s)
Visibility: 4 miles ( 6 km)
Ceiling: at least 12,000 feet AGL
Clouds: few clouds at 2000 feet AGL
scattered clouds at 2500 feet AGL
Weather: no significant weather observed at this time

METAR text: VOHY 180700Z 29008KT 6000 SCT020 35/21 Q1009 NOSIG
Conditions at: VOHY (HYDERABAD (CIV/M, IN) observed 0700 UTC 18 June 2019
Temperature: 35.0°C (95°F)
Dewpoint: 21.0°C (70°F) [RH = 44%]
Pressure (altimeter): 29.79 inches Hg (1009.0 mb)
Winds: from the WNW (290 degrees) at 9 MPH (8 knots; 4.1 m/s)
Visibility: 4 miles ( 6 km)
Ceiling: at least 12,000 feet AGL
Clouds: scattered clouds at 2000 feet AGL
Weather: no significant weather observed at this time

METAR text: VOHY 180630Z 27013KT 6000 SCT020 34/21 Q1009 NOSIG
Conditions at: VOHY (HYDERABAD (CIV/M, IN) observed 0630 UTC 18 June 2019
Temperature: 34.0°C (93°F)
Dewpoint: 21.0°C (70°F) [RH = 47%]
Pressure (altimeter): 29.79 inches Hg (1009.0 mb)
Winds: from the W (270 degrees) at 15 MPH (13 knots; 6.7 m/s)
Visibility: 4 miles ( 6 km)
Ceiling: at least 12,000 feet AGL
Clouds: scattered clouds at 2000 feet AGL
Weather: no significant weather observed at this time

METAR text: VOHY 180600Z 29009KT 6000 FEW020 SCT100 34/21 Q1010 NOSIG
Conditions at: VOHY (HYDERABAD (CIV/M, IN) observed 0600 UTC 18 June 2019
Temperature: 34.0°C (93°F)
Dewpoint: 21.0°C (70°F) [RH = 47%]
Pressure (altimeter): 29.82 inches Hg (1010.0 mb)
Winds: from the WNW (290 degrees) at 10 MPH (9 knots; 4.6 m/s)
Visibility: 4 miles ( 6 km)
Ceiling: at least 12,000 feet AGL
Clouds: few clouds at 2000 feet AGL
scattered clouds at 10000 feet AGL
Weather: no significant weather observed at this time

METAR text: VOHY 180530Z 28013KT 6000 FEW020 SCT100 33/21 Q1010 NOSIG
Conditions at: VOHY (HYDERABAD (CIV/M, IN) observed 0530 UTC 18 June 2019
Temperature: 33.0°C (91°F)
Dewpoint: 21.0°C (70°F) [RH = 49%]
Pressure (altimeter): 29.82 inches Hg (1010.0 mb)
Winds: from the W (280 degrees) at 15 MPH (13 knots; 6.7 m/s)
Visibility: 4 miles ( 6 km)
Ceiling: at least 12,000 feet AGL
Clouds: few clouds at 2000 feet AGL
scattered clouds at 10000 feet AGL
Weather: no significant weather observed at this time

METAR text: VOHY 180500Z 29011KT 6000 FEW020 32/21 Q1010 NOSIG
Conditions at: VOHY (HYDERABAD (CIV/M, IN) observed 0500 UTC 18 June 2019
Temperature: 32.0°C (90°F)
Dewpoint: 21.0°C (70°F) [RH = 52%]
Pressure (altimeter): 29.82 inches Hg (1010.0 mb)
Winds: from the WNW (290 degrees) at 13 MPH (11 knots; 5.7 m/s)
Visibility: 4 miles ( 6 km)
Ceiling: at least 12,000 feet AGL
Clouds: few clouds at 2000 feet AGL
Weather: no significant weather observed at this time

METAR text: VOHY 180430Z 29010KT 6000 FEW020 32/21 Q1010 NOSIG
Conditions at: VOHY (HYDERABAD (CIV/M, IN) observed 0430 UTC 18 June 2019
Temperature: 32.0°C (90°F)
Dewpoint: 21.0°C (70°F) [RH = 52%]
Pressure (altimeter): 29.82 inches Hg (1010.0 mb)
Winds: from the WNW (290 degrees) at 12 MPH (10 knots; 5.1 m/s)
Visibility: 4 miles ( 6 km)
Ceiling: at least 12,000 feet AGL
Clouds: few clouds at 2000 feet AGL
Weather: no significant weather observed at this time

METAR text: VOHY 180400Z 27011KT 6000 FEW020 31/21 Q1011 NOSIG
Conditions at: VOHY (HYDERABAD (CIV/M, IN) observed 0400 UTC 18 June 2019
Temperature: 31.0°C (88°F)
Dewpoint: 21.0°C (70°F) [RH = 55%]
Pressure (altimeter): 29.85 inches Hg (1011.0 mb)
Winds: from the W (270 degrees) at 13 MPH (11 knots; 5.7 m/s)
Visibility: 4 miles ( 6 km)
Ceiling: at least 12,000 feet AGL
Clouds: few clouds at 2000 feet AGL
Weather: no significant weather observed at this time

METAR text: VOHY 180330Z 27013KT 6000 FEW020 30/21 Q1011 NOSIG
Conditions at: VOHY (HYDERABAD (CIV/M, IN) observed 0330 UTC 18 June 2019
Temperature: 30.0°C (86°F)
Dewpoint: 21.0°C (70°F) [RH = 59%]
Pressure (altimeter): 29.85 inches Hg (1011.0 mb)
Winds: from the W (270 degrees) at 15 MPH (13 knots; 6.7 m/s)
Visibility: 4 miles ( 6 km)
Ceiling: at least 12,000 feet AGL
Clouds: few clouds at 2000 feet AGL
Weather: no significant weather observed at this time

METAR text: VOHY 180300Z 27014KT 6000 FEW020 SCT100 30/21 Q1010 NOSIG
Conditions at: VOHY (HYDERABAD (CIV/M, IN) observed 0300 UTC 18 June 2019
Temperature: 30.0°C (86°F)
Dewpoint: 21.0°C (70°F) [RH = 59%]
Pressure (altimeter): 29.82 inches Hg (1010.0 mb)
Winds: from the W (270 degrees) at 16 MPH (14 knots; 7.2 m/s)
Visibility: 4 miles ( 6 km)
Ceiling: at least 12,000 feet AGL
Clouds: few clouds at 2000 feet AGL
scattered clouds at 10000 feet AGL
Weather: no significant weather observed at this time

METAR text: VOHY 180230Z 28013KT 6000 FEW020 SCT100 29/21 Q1010 NOSIG
Conditions at: VOHY (HYDERABAD (CIV/M, IN) observed 0230 UTC 18 June 2019
Temperature: 29.0°C (84°F)
Dewpoint: 21.0°C (70°F) [RH = 62%]
Pressure (altimeter): 29.82 inches Hg (1010.0 mb)
Winds: from the W (280 degrees) at 15 MPH (13 knots; 6.7 m/s)
Visibility: 4 miles ( 6 km)
Ceiling: at least 12,000 feet AGL
Clouds: few clouds at 2000 feet AGL
scattered clouds at 10000 feet AGL
Weather: no significant weather observed at this time

METAR text: VOHY 180200Z 28012KT 6000 FEW020 SCT100 29/21 Q1010 NOSIG
Conditions at: VOHY (HYDERABAD (CIV/M, IN) observed 0200 UTC 18 June 2019
Temperature: 29.0°C (84°F)
Dewpoint: 21.0°C (70°F) [RH = 62%]
Pressure (altimeter): 29.82 inches Hg (1010.0 mb)
Winds: from the W (280 degrees) at 14 MPH (12 knots; 6.2 m/s)
Visibility: 4 miles ( 6 km)
Ceiling: at least 12,000 feet AGL
Clouds: few clouds at 2000 feet AGL
scattered clouds at 10000 feet AGL
Weather: no significant weather observed at this time

METAR text: VOHY 180130Z 28011KT 6000 FEW020 SCT100 28/21 Q1010 NOSIG
Conditions at: VOHY (HYDERABAD (CIV/M, IN) observed 0130 UTC 18 June 2019
Temperature: 28.0°C (82°F)
Dewpoint: 21.0°C (70°F) [RH = 66%]
Pressure (altimeter): 29.82 inches Hg (1010.0 mb)
Winds: from the W (280 degrees) at 13 MPH (11 knots; 5.7 m/s)
Visibility: 4 miles ( 6 km)
Ceiling: at least 12,000 feet AGL
Clouds: few clouds at 2000 feet AGL
scattered clouds at 10000 feet AGL
Weather: no significant weather observed at this time

METAR text: VOHY 171600Z 22005KT 6000 SCT020 BKN100 34/19 Q1009 NOSIG
Conditions at: VOHY (HYDERABAD (CIV/M, IN) observed 1600 UTC 17 June 2019
Temperature: 34.0°C (93°F)
Dewpoint: 19.0°C (66°F) [RH = 41%]
Pressure (altimeter): 29.79 inches Hg (1009.0 mb)
Winds: from the SW (220 degrees) at 6 MPH (5 knots; 2.6 m/s)
Visibility: 4 miles ( 6 km)
Ceiling: 10000 feet AGL
Clouds: scattered clouds at 2000 feet AGL
broken clouds at 10000 feet AGL
Weather: no significant weather observed at this time

METAR text: VOHY 171530Z 25004KT 6000 SCT020 BKN100 34/19 Q1009 NOSIG
Conditions at: VOHY (HYDERABAD (CIV/M, IN) observed 1530 UTC 17 June 2019
Temperature: 34.0°C (93°F)
Dewpoint: 19.0°C (66°F) [RH = 41%]
Pressure (altimeter): 29.79 inches Hg (1009.0 mb)
Winds: from the WSW (250 degrees) at 5 MPH (4 knots; 2.1 m/s)
Visibility: 4 miles ( 6 km)
Ceiling: 10000 feet AGL
Clouds: scattered clouds at 2000 feet AGL
broken clouds at 10000 feet AGL
Weather: no significant weather observed at this time

METAR text: VOHY 171500Z 25004KT 6000 SCT020 BKN100 35/19 Q1009 NOSIG
Conditions at: VOHY (HYDERABAD (CIV/M, IN) observed 1500 UTC 17 June 2019
Temperature: 35.0°C (95°F)
Dewpoint: 19.0°C (66°F) [RH = 39%]
Pressure (altimeter): 29.79 inches Hg (1009.0 mb)
Winds: from the WSW (250 degrees) at 5 MPH (4 knots; 2.1 m/s)
Visibility: 4 miles ( 6 km)
Ceiling: 10000 feet AGL
Clouds: scattered clouds at 2000 feet AGL
broken clouds at 10000 feet AGL
Weather: no significant weather observed at this time

METAR text: VOHY 171430Z VRB02KT 6000 SCT020 BKN100 34/20 Q1009 NOSIG
Conditions at: VOHY (HYDERABAD (CIV/M, IN) observed 1430 UTC 17 June 2019
Temperature: 34.0°C (93°F)
Dewpoint: 20.0°C (68°F) [RH = 44%]
Pressure (altimeter): 29.79 inches Hg (1009.0 mb)
Winds: variable direction winds at 2 MPH (2 knots; 1.0 m/s)
Visibility: 4 miles ( 6 km)
Ceiling: 10000 feet AGL
Clouds: scattered clouds at 2000 feet AGL
broken clouds at 10000 feet AGL
Weather: no significant weather observed at this time

METAR text: VOHY 171400Z 25006KT 6000 SCT020 BKN100 35/20 Q1009 NOSIG
Conditions at: VOHY (HYDERABAD (CIV/M, IN) observed 1400 UTC 17 June 2019
Temperature: 35.0°C (95°F)
Dewpoint: 20.0°C (68°F) [RH = 42%]
Pressure (altimeter): 29.79 inches Hg (1009.0 mb)
Winds: from the WSW (250 degrees) at 7 MPH (6 knots; 3.1 m/s)
Visibility: 4 miles ( 6 km)
Ceiling: 10000 feet AGL
Clouds: scattered clouds at 2000 feet AGL
broken clouds at 10000 feet AGL
Weather: no significant weather observed at this time

METAR text: VOHY 171330Z 26005KT 6000 SCT020 BKN100 35/19 Q1008 NOSIG
Conditions at: VOHY (HYDERABAD (CIV/M, IN) observed 1330 UTC 17 June 2019
Temperature: 35.0°C (95°F)
Dewpoint: 19.0°C (66°F) [RH = 39%]
Pressure (altimeter): 29.76 inches Hg (1008.0 mb)
Winds: from the W (260 degrees) at 6 MPH (5 knots; 2.6 m/s)
Visibility: 4 miles ( 6 km)
Ceiling: 10000 feet AGL
Clouds: scattered clouds at 2000 feet AGL
broken clouds at 10000 feet AGL
Weather: no significant weather observed at this time

METAR text: VOHY 171300Z 24007KT 6000 SCT020 BKN100 35/19 Q1008 NOSIG
Conditions at: VOHY (HYDERABAD (CIV/M, IN) observed 1300 UTC 17 June 2019
Temperature: 35.0°C (95°F)
Dewpoint: 19.0°C (66°F) [RH = 39%]
Pressure (altimeter): 29.76 inches Hg (1008.0 mb)
Winds: from the WSW (240 degrees) at 8 MPH (7 knots; 3.6 m/s)
Visibility: 4 miles ( 6 km)
Ceiling: 10000 feet AGL
Clouds: scattered clouds at 2000 feet AGL
broken clouds at 10000 feet AGL
Weather: no significant weather observed at this time

METAR text: VOHY 171230Z 25013KT 6000 SCT020 FEW030TCU BKN100 35/20 Q1008 NOSIG
Conditions at: VOHY (HYDERABAD (CIV/M, IN) observed 1230 UTC 17 June 2019
Temperature: 35.0°C (95°F)
Dewpoint: 20.0°C (68°F) [RH = 42%]
Pressure (altimeter): 29.76 inches Hg (1008.0 mb)
Winds: from the WSW (250 degrees) at 15 MPH (13 knots; 6.7 m/s)
Visibility: 4 miles ( 6 km)
Ceiling: 10000 feet AGL
Clouds: scattered clouds at 2000 feet AGL
few clouds at 3000 feet AGL
broken clouds at 10000 feet AGL
Weather: no significant weather observed at this time

METAR text: VOHY 171200Z 27012KT 6000 SCT020 FEW030TCU BKN100 36/20 Q1007 NOSIG
Conditions at: VOHY (HYDERABAD (CIV/M, IN) observed 1200 UTC 17 June 2019
Temperature: 36.0°C (97°F)
Dewpoint: 20.0°C (68°F) [RH = 39%]
Pressure (altimeter): 29.73 inches Hg (1007.0 mb)
Winds: from the W (270 degrees) at 14 MPH (12 knots; 6.2 m/s)
Visibility: 4 miles ( 6 km)
Ceiling: 10000 feet AGL
Clouds: scattered clouds at 2000 feet AGL
few clouds at 3000 feet AGL
broken clouds at 10000 feet AGL
Weather: no significant weather observed at this time

METAR text: VOHY 171100Z 28011KT 6000 SCT020 SCT025 36/20 Q1007 NOSIG
Conditions at: VOHY (HYDERABAD (CIV/M, IN) observed 1100 UTC 17 June 2019
Temperature: 36.0°C (97°F)
Dewpoint: 20.0°C (68°F) [RH = 39%]
Pressure (altimeter): 29.73 inches Hg (1007.0 mb)
Winds: from the W (280 degrees) at 13 MPH (11 knots; 5.7 m/s)
Visibility: 4 miles ( 6 km)
Ceiling: at least 12,000 feet AGL
Clouds: scattered clouds at 2000 feet AGL
scattered clouds at 2500 feet AGL
Weather: no significant weather observed at this time

METAR text: VOHY 171030Z 25009KT 6000 SCT020 SCT025 36/20 Q1007 NOSIG
Conditions at: VOHY (HYDERABAD (CIV/M, IN) observed 1030 UTC 17 June 2019
Temperature: 36.0°C (97°F)
Dewpoint: 20.0°C (68°F) [RH = 39%]
Pressure (altimeter): 29.73 inches Hg (1007.0 mb)
Winds: from the WSW (250 degrees) at 10 MPH (9 knots; 4.6 m/s)
Visibility: 4 miles ( 6 km)
Ceiling: at least 12,000 feet AGL
Clouds: scattered clouds at 2000 feet AGL
scattered clouds at 2500 feet AGL
Weather: no significant weather observed at this time

METAR text: VOHY 171000Z 27009KT 6000 SCT020 SCT025 37/21 Q1008 NOSIG
Conditions at: VOHY (HYDERABAD (CIV/M, IN) observed 1000 UTC 17 June 2019
Temperature: 37.0°C (99°F)
Dewpoint: 21.0°C (70°F) [RH = 40%]
Pressure (altimeter): 29.76 inches Hg (1008.0 mb)
Winds: from the W (270 degrees) at 10 MPH (9 knots; 4.6 m/s)
Visibility: 4 miles ( 6 km)
Ceiling: at least 12,000 feet AGL
Clouds: scattered clouds at 2000 feet AGL
scattered clouds at 2500 feet AGL
Weather: no significant weather observed at this time

METAR text: VOHY 170930Z 27013KT 6000 SCT020 SCT025 36/20 Q1008 NOSIG
Conditions at: VOHY (HYDERABAD (CIV/M, IN) observed 0930 UTC 17 June 2019
Temperature: 36.0°C (97°F)
Dewpoint: 20.0°C (68°F) [RH = 39%]
Pressure (altimeter): 29.76 inches Hg (1008.0 mb)
Winds: from the W (270 degrees) at 15 MPH (13 knots; 6.7 m/s)
Visibility: 4 miles ( 6 km)
Ceiling: at least 12,000 feet AGL
Clouds: scattered clouds at 2000 feet AGL
scattered clouds at 2500 feet AGL
Weather: no significant weather observed at this time

METAR text: VOHY 170900Z 28006KT 6000 SCT020 SCT025 37/21 Q1008 NOSIG
Conditions at: VOHY (HYDERABAD (CIV/M, IN) observed 0900 UTC 17 June 2019
Temperature: 37.0°C (99°F)
Dewpoint: 21.0°C (70°F) [RH = 40%]
Pressure (altimeter): 29.76 inches Hg (1008.0 mb)
Winds: from the W (280 degrees) at 7 MPH (6 knots; 3.1 m/s)
Visibility: 4 miles ( 6 km)
Ceiling: at least 12,000 feet AGL
Clouds: scattered clouds at 2000 feet AGL
scattered clouds at 2500 feet AGL
Weather: no significant weather observed at this time

METAR text: VOHY 170830Z 29014KT 6000 SCT020 SCT025 36/21 Q1008 NOSIG
Conditions at: VOHY (HYDERABAD (CIV/M, IN) observed 0830 UTC 17 June 2019
Temperature: 36.0°C (97°F)
Dewpoint: 21.0°C (70°F) [RH = 42%]
Pressure (altimeter): 29.76 inches Hg (1008.0 mb)
Winds: from the WNW (290 degrees) at 16 MPH (14 knots; 7.2 m/s)
Visibility: 4 miles ( 6 km)
Ceiling: at least 12,000 feet AGL
Clouds: scattered clouds at 2000 feet AGL
scattered clouds at 2500 feet AGL
Weather: no significant weather observed at this time

METAR text: VOHY 170800Z 28016KT 6000 SCT020 SCT025 35/22 Q1009 NOSIG
Conditions at: VOHY (HYDERABAD (CIV/M, IN) observed 0800 UTC 17 June 2019
Temperature: 35.0°C (95°F)
Dewpoint: 22.0°C (72°F) [RH = 47%]
Pressure (altimeter): 29.79 inches Hg (1009.0 mb)
Winds: from the W (280 degrees) at 18 MPH (16 knots; 8.2 m/s)
Visibility: 4 miles ( 6 km)
Ceiling: at least 12,000 feet AGL
Clouds: scattered clouds at 2000 feet AGL
scattered clouds at 2500 feet AGL
Weather: no significant weather observed at this time

METAR text: VOHY 170730Z 29014KT 6000 SCT020 BKN100 34/22 Q1010 NOSIG
Conditions at: VOHY (HYDERABAD (CIV/M, IN) observed 0730 UTC 17 June 2019
Temperature: 34.0°C (93°F)
Dewpoint: 22.0°C (72°F) [RH = 50%]
Pressure (altimeter): 29.82 inches Hg (1010.0 mb)
Winds: from the WNW (290 degrees) at 16 MPH (14 knots; 7.2 m/s)
Visibility: 4 miles ( 6 km)
Ceiling: 10000 feet AGL
Clouds: scattered clouds at 2000 feet AGL
broken clouds at 10000 feet AGL
Weather: no significant weather observed at this time

METAR text: VOHY 170700Z 28015KT 6000 SCT020 BKN100 34/21 Q1010 NOSIG
Conditions at: VOHY (HYDERABAD (CIV/M, IN) observed 0700 UTC 17 June 2019
Temperature: 34.0°C (93°F)
Dewpoint: 21.0°C (70°F) [RH = 47%]
Pressure (altimeter): 29.82 inches Hg (1010.0 mb)
Winds: from the W (280 degrees) at 17 MPH (15 knots; 7.7 m/s)
Visibility: 4 miles ( 6 km)
Ceiling: 10000 feet AGL
Clouds: scattered clouds at 2000 feet AGL
broken clouds at 10000 feet AGL
Weather: no significant weather observed at this time

Forecast for: VOHY (HYDERABAD (CIV/M, IN)
Text: TAF VOHY 181100Z 1812/1821 26012KT 6000 SCT020 SCT025
Forecast period: 1200 to 1600 UTC 18 June 2019
Forecast type: FROM: standard forecast or significant change
Winds: from the W (260 degrees) at 14 MPH (12 knots; 6.2 m/s)
Visibility: 4 miles (6 km)
Ceiling: at least 12,000 feet AGL
Clouds: scattered clouds at 2000 feet AGL
scattered clouds at 2500 feet AGL
Weather: no significant weather forecast for this period
Text: BECMG 1816/1818 30008KT 5000 HZ SCT020 SCT100
Forecast period: 1600 to 2100 UTC 18 June 2019
Forecast type: BECOMING: Conditions expected to become as follows by 1800 UTC 18 June 2019
Winds: from the WNW (300 degrees) at 9 MPH (8 knots; 4.1 m/s)
Visibility: 3 miles (5 km)
Ceiling: at least 12,000 feet AGL
Clouds: scattered clouds at 2000 feet AGL
scattered clouds at 10000 feet AGL
Weather: HZ  (haze)